createdAt,value
2019-05-05T00:01:44.907Z,100910.83
2019-05-05T00:04:31.625Z,100912.47
2019-05-05T00:07:00.072Z,100913.55
2019-05-05T00:09:28.521Z,100919.78
2019-05-05T00:12:15.912Z,100918.95
2019-05-05T00:15:05.169Z,100930.27
2019-05-05T00:17:45.069Z,100923.45
2019-05-05T00:20:14.516Z,100930.96
2019-05-05T00:22:45.422Z,100927.60
2019-05-05T00:25:14.288Z,100928.53
2019-05-05T00:27:45.244Z,100930.75
2019-05-05T00:30:14.381Z,100928.53
2019-05-05T00:32:44.286Z,100925.69
2019-05-05T00:35:47.016Z,100929.17
2019-05-05T00:38:15.284Z,100928.00
2019-05-05T00:40:44.316Z,100930.58
2019-05-05T00:43:14.801Z,100929.67
2019-05-05T00:48:41.634Z,100941.41
2019-05-05T00:51:09.916Z,100939.40
2019-05-05T00:53:38.173Z,100940.42
2019-05-05T00:56:06.453Z,100941.63
2019-05-05T01:01:34.268Z,100943.08
2019-05-05T01:06:51.761Z,100943.54
2019-05-05T01:14:47.934Z,100957.84
2019-05-05T01:17:16.200Z,100951.98
2019-05-05T01:19:46.738Z,100947.28
2019-05-05T01:22:14.587Z,100957.69
2019-05-05T01:24:42.818Z,100957.23
2019-05-05T01:27:11.133Z,100952.52
2019-05-05T01:29:39.413Z,100955.91
2019-05-05T01:40:42.096Z,100961.28
2019-05-05T01:43:10.401Z,100961.68
2019-05-05T01:45:38.699Z,100965.85
2019-05-05T01:48:47.072Z,100967.28
2019-05-05T01:51:15.368Z,100979.71
2019-05-05T01:53:44.367Z,100967.36
2019-05-05T01:56:12.682Z,100972.89
2019-05-05T01:59:20.958Z,100975.48
2019-05-05T02:01:49.256Z,100981.53
2019-05-05T02:04:17.531Z,100976.41
2019-05-05T02:06:45.838Z,100982.86
2019-05-05T02:09:15.915Z,100986.44
2019-05-05T02:11:45.301Z,100980.58
2019-05-05T02:14:15.564Z,100979.75
2019-05-05T02:16:45.216Z,100979.31
2019-05-05T02:19:14.406Z,100978.81
2019-05-05T02:21:42.623Z,100981.00
2019-05-05T02:24:10.901Z,100984.02
2019-05-05T02:26:39.182Z,100983.59
2019-05-05T02:29:26.558Z,100982.76
2019-05-05T02:32:15.811Z,100979.31
2019-05-05T02:35:06.175Z,100978.49
2019-05-05T02:37:46.304Z,100974.70
2019-05-05T02:40:15.886Z,100974.70
2019-05-05T02:43:25.183Z,100976.83
2019-05-05T02:49:35.313Z,100981.25
2019-05-05T02:52:04.866Z,100981.71
2019-05-05T02:57:56.052Z,100986.47
2019-05-05T03:03:13.525Z,100994.22
2019-05-05T03:05:43.538Z,100992.08
2019-05-05T03:08:13.884Z,100995.55
2019-05-05T03:10:44.322Z,100995.60
2019-05-05T03:13:53.629Z,100999.05
2019-05-05T03:16:55.565Z,100995.17
2019-05-05T03:19:57.215Z,100999.48
2019-05-05T03:22:58.809Z,100999.05
2019-05-05T03:25:27.086Z,101002.48
2019-05-05T03:27:55.446Z,100998.16
2019-05-05T03:31:04.982Z,101003.80
2019-05-05T03:33:35.193Z,101003.40
2019-05-05T03:36:37.049Z,101010.27
2019-05-05T03:39:38.595Z,101014.55
2019-05-05T03:42:40.970Z,101014.59
2019-05-05T03:45:44.512Z,101018.57
2019-05-05T03:48:24.701Z,101020.02
2019-05-05T03:54:14.636Z,101023.78
2019-05-05T03:57:17.844Z,101028.11
2019-05-05T03:59:46.132Z,101030.71
2019-05-05T04:02:34.172Z,101037.16
2019-05-05T04:07:56.855Z,101037.55
2019-05-05T04:10:25.150Z,101035.41
2019-05-05T04:13:34.488Z,101034.56
2019-05-05T04:21:44.854Z,101055.61
2019-05-05T04:24:14.588Z,101057.98
2019-05-05T04:26:44.075Z,101052.55
2019-05-05T04:29:14.023Z,101056.61
2019-05-05T04:31:43.597Z,101058.34
2019-05-05T04:34:13.479Z,101064.83
2019-05-05T04:36:41.841Z,101062.81
2019-05-05T04:39:10.146Z,101064.99
2019-05-05T04:41:38.408Z,101071.98
2019-05-05T04:44:06.668Z,101075.86
2019-05-05T04:46:34.943Z,101080.04
2019-05-05T04:49:23.544Z,101073.87
2019-05-05T04:57:20.247Z,101077.67
2019-05-05T05:02:56.592Z,101080.48
2019-05-05T05:05:44.245Z,101086.34
2019-05-05T05:08:13.937Z,101096.54
2019-05-05T05:10:43.784Z,101092.27
2019-05-05T05:13:13.895Z,101100.28
2019-05-05T05:15:44.486Z,101097.17
2019-05-05T05:18:31.720Z,101098.52
2019-05-05T05:21:00.002Z,101106.90
2019-05-05T05:23:29.765Z,101117.55
2019-05-05T05:25:58.279Z,101111.64
2019-05-05T05:28:26.546Z,101122.23
2019-05-05T05:30:54.825Z,101122.91
2019-05-05T05:33:23.877Z,101127.57
2019-05-05T05:35:54.645Z,101135.91
2019-05-05T05:41:43.762Z,101141.13
2019-05-05T05:44:45.326Z,101137.94
2019-05-05T05:47:33.864Z,101142.63
2019-05-05T05:53:04.809Z,101150.56
2019-05-05T05:55:34.443Z,101158.31
2019-05-05T05:58:04.690Z,101164.05
2019-05-05T06:00:34.349Z,101167.11
2019-05-05T06:03:03.943Z,101168.72
2019-05-05T06:08:29.913Z,101165.81
2019-05-05T06:10:57.965Z,101175.72
2019-05-05T06:13:26.226Z,101168.73
2019-05-05T06:15:54.566Z,101169.27
2019-05-05T06:18:24.301Z,101171.70
2019-05-05T06:20:53.754Z,101165.05
2019-05-05T06:23:24.075Z,101165.73
2019-05-05T06:25:55.020Z,101169.53
2019-05-05T06:28:23.680Z,101174.81
2019-05-05T06:30:54.645Z,101181.74
2019-05-05T06:33:24.180Z,101185.30
2019-05-05T06:35:53.615Z,101185.42
2019-05-05T06:38:24.149Z,101189.49
2019-05-05T06:41:11.966Z,101193.13
2019-05-05T06:46:38.839Z,101193.02
2019-05-05T06:49:07.110Z,101193.68
2019-05-05T06:51:35.385Z,101191.03
2019-05-05T06:54:04.606Z,101196.94
2019-05-05T06:56:34.200Z,101200.92
2019-05-05T06:59:04.458Z,101198.72
2019-05-05T07:01:33.930Z,101203.37
2019-05-05T07:06:54.113Z,101211.35
2019-05-05T07:09:19.498Z,101208.55
2019-05-05T07:11:47.763Z,101211.74
2019-05-05T07:14:16.019Z,101208.00
2019-05-05T07:16:44.283Z,101210.70
2019-05-05T07:19:14.580Z,101208.55
2019-05-05T07:21:43.616Z,101212.77
2019-05-05T07:24:14.363Z,101217.25
2019-05-05T07:26:44.513Z,101211.59
2019-05-05T07:29:25.864Z,101211.38
2019-05-05T07:31:54.670Z,101211.38
2019-05-05T07:37:03.857Z,101210.08
2019-05-05T07:39:34.078Z,101211.92
2019-05-05T07:42:04.537Z,101213.27
2019-05-05T07:44:33.911Z,101207.98
2019-05-05T07:47:03.606Z,101204.13
2019-05-05T07:49:33.574Z,101203.91
2019-05-05T07:52:04.058Z,101217.73
2019-05-05T07:54:34.245Z,101216.25
2019-05-05T07:57:04.247Z,101210.34
2019-05-05T07:59:34.067Z,101218.02
2019-05-05T08:02:03.998Z,101218.67
2019-05-05T08:04:34.656Z,101212.52
2019-05-05T08:07:04.083Z,101217.02
2019-05-05T08:09:33.865Z,101215.93
2019-05-05T08:12:04.318Z,101230.61
2019-05-05T08:14:33.713Z,101219.63
2019-05-05T08:17:23.532Z,101223.02
2019-05-05T08:20:11.279Z,101223.97
2019-05-05T08:22:39.557Z,101240.23
2019-05-05T08:25:47.855Z,101240.23
2019-05-05T08:28:35.223Z,101232.22
2019-05-05T08:31:24.859Z,101243.53
2019-05-05T08:33:54.565Z,101231.02
2019-05-05T08:36:23.527Z,101231.52
2019-05-05T08:38:54.542Z,101233.91
2019-05-05T08:41:24.414Z,101232.83
2019-05-05T08:43:54.293Z,101236.09
2019-05-05T08:46:24.651Z,101242.03
2019-05-05T08:48:53.742Z,101250.58
2019-05-05T08:51:24.616Z,101251.64
2019-05-05T08:53:54.426Z,101240.60
2019-05-05T08:59:30.635Z,101238.44
2019-05-05T09:01:58.934Z,101228.48
2019-05-05T09:04:27.197Z,101229.06
2019-05-05T09:06:55.463Z,101238.17
2019-05-05T09:09:24.258Z,101230.06
2019-05-05T09:11:54.297Z,101229.36
2019-05-05T09:14:24.067Z,101217.48
2019-05-05T09:16:53.855Z,101215.83
2019-05-05T09:22:11.027Z,101220.23
2019-05-05T09:24:58.411Z,101212.42
2019-05-05T09:27:45.793Z,101214.36
2019-05-05T09:30:48.035Z,101225.39
2019-05-05T09:33:18.321Z,101231.92
2019-05-05T09:35:46.292Z,101233.53
2019-05-05T09:38:14.853Z,101233.56
2019-05-05T09:40:44.628Z,101233.28
2019-05-05T09:43:14.786Z,101238.62
2019-05-05T09:45:44.142Z,101229.89
2019-05-05T09:48:13.897Z,101231.71
2019-05-05T09:50:43.664Z,101234.77
2019-05-05T09:53:14.527Z,101230.27
2019-05-05T09:55:44.279Z,101228.19
2019-05-05T09:58:13.736Z,101230.46
2019-05-05T10:01:16.505Z,101229.30
2019-05-05T10:03:44.821Z,101226.75
2019-05-05T10:06:14.229Z,101227.89
2019-05-05T10:08:44.668Z,101209.59
2019-05-05T10:11:16.242Z,101219.13
2019-05-05T10:13:44.276Z,101217.72
2019-05-05T10:16:14.277Z,101219.64
2019-05-05T10:18:44.667Z,101219.42
2019-05-05T10:21:13.852Z,101224.73
2019-05-05T10:26:25.416Z,101239.08
2019-05-05T10:28:53.797Z,101251.98
2019-05-05T10:31:24.160Z,101251.46
2019-05-05T10:36:44.172Z,101250.11
2019-05-05T10:39:44.041Z,101256.56
2019-05-05T10:42:14.319Z,101260.08
2019-05-05T10:44:44.504Z,101257.63
2019-05-05T10:47:13.739Z,101258.84
2019-05-05T10:49:44.202Z,101261.17
2019-05-05T10:52:14.249Z,101256.83
2019-05-05T10:54:44.777Z,101264.30
2019-05-05T10:57:14.348Z,101249.56
2019-05-05T10:59:43.555Z,101246.11
2019-05-05T11:02:14.094Z,101238.97
2019-05-05T11:04:44.185Z,101241.30
2019-05-05T11:07:14.346Z,101235.22
2019-05-05T11:09:44.241Z,101241.16
2019-05-05T11:12:14.289Z,101242.22
2019-05-05T11:14:44.234Z,101243.70
2019-05-05T11:17:14.202Z,101235.15
2019-05-05T11:19:44.132Z,101245.16
2019-05-05T11:22:14.490Z,101247.37
2019-05-05T11:24:55.271Z,101230.88
2019-05-05T11:27:12.251Z,101238.53
2019-05-05T11:29:59.640Z,101231.81
2019-05-05T11:32:47.035Z,101229.43
2019-05-05T11:35:15.301Z,101232.05
2019-05-05T11:37:43.828Z,101229.20
2019-05-05T11:40:13.718Z,101226.02
2019-05-05T11:42:41.992Z,101220.50
2019-05-05T11:45:44.059Z,101234.51
2019-05-05T11:48:14.632Z,101242.99
2019-05-05T11:50:43.671Z,101243.44
2019-05-05T11:53:14.367Z,101239.39
2019-05-05T11:55:44.249Z,101243.39
2019-05-05T11:58:14.348Z,101240.02
2019-05-05T12:00:43.835Z,101238.02
2019-05-05T12:03:14.387Z,101233.31
2019-05-05T12:05:44.202Z,101227.48
2019-05-05T12:08:14.453Z,101236.08
2019-05-05T12:13:21.258Z,101237.77
2019-05-05T12:18:38.462Z,101240.28
2019-05-05T12:21:06.729Z,101244.84
2019-05-05T12:23:35.004Z,101228.09
2019-05-05T12:34:00.117Z,101228.23
2019-05-05T12:36:28.398Z,101227.71
2019-05-05T12:38:56.654Z,101226.37
2019-05-05T12:41:24.943Z,101229.67
2019-05-05T12:43:54.843Z,101221.58
2019-05-05T12:46:44.184Z,101236.13
2019-05-05T12:52:01.461Z,101226.58
2019-05-05T12:54:29.715Z,101238.39
2019-05-05T12:56:58.789Z,101217.19
2019-05-05T12:59:27.058Z,101231.27
2019-05-05T13:04:44.449Z,101217.88
2019-05-05T13:07:13.598Z,101223.57
2019-05-05T13:09:44.067Z,101223.55
2019-05-05T13:12:14.861Z,101219.05
2019-05-05T13:14:43.855Z,101237.07
2019-05-05T13:17:14.189Z,101218.72
2019-05-05T13:20:01.772Z,101224.24
2019-05-05T13:22:49.176Z,101225.12
2019-05-05T13:25:36.573Z,101227.25
2019-05-05T13:28:04.842Z,101211.08
2019-05-05T13:30:34.411Z,101203.25
2019-05-05T13:33:03.697Z,101209.81
2019-05-05T13:35:34.036Z,101216.55
2019-05-05T13:38:04.107Z,101219.80
2019-05-05T13:40:34.557Z,101221.91
2019-05-05T13:43:04.246Z,101206.76
2019-05-05T13:45:54.004Z,101213.02
2019-05-05T13:48:22.232Z,101222.47
2019-05-05T13:53:29.459Z,101223.27
2019-05-05T13:56:08.842Z,101229.81
2019-05-05T13:58:27.738Z,101227.67
2019-05-05T14:00:56.017Z,101231.45
2019-05-05T14:03:24.304Z,101231.52
2019-05-05T14:05:54.107Z,101236.99
2019-05-05T14:08:23.787Z,101228.48
2019-05-05T14:10:54.001Z,101227.43
2019-05-05T14:13:24.560Z,101221.17
2019-05-05T14:15:54.391Z,101223.86
2019-05-05T14:18:23.565Z,101227.91
2019-05-05T14:21:04.747Z,101228.77
2019-05-05T14:26:24.364Z,101226.41
2019-05-05T14:28:42.009Z,101218.50
2019-05-05T14:36:57.297Z,101226.83
2019-05-05T14:39:25.563Z,101234.82
2019-05-05T14:41:54.033Z,101240.14
2019-05-05T14:44:24.027Z,101237.04
2019-05-05T14:46:52.263Z,101231.99
2019-05-05T14:49:20.545Z,101220.09
2019-05-05T14:51:48.827Z,101218.55
2019-05-05T14:54:17.088Z,101217.03
2019-05-05T14:56:45.355Z,101218.50
2019-05-05T14:59:14.227Z,101230.91
2019-05-05T15:01:44.727Z,101227.59
2019-05-05T15:10:01.853Z,101262.00
2019-05-05T15:15:09.633Z,101264.18
2019-05-05T15:17:37.895Z,101269.52
2019-05-05T15:20:46.186Z,101254.25
2019-05-05T15:23:14.535Z,101264.99
2019-05-05T15:25:44.629Z,101263.89
2019-05-05T15:28:13.864Z,101254.61
2019-05-05T15:30:44.130Z,101263.44
2019-05-05T15:33:13.825Z,101271.66
2019-05-05T15:35:46.315Z,101268.28
2019-05-05T15:38:25.305Z,101278.94
2019-05-05T15:40:54.776Z,101268.94
2019-05-05T15:43:24.381Z,101278.52
2019-05-05T15:45:54.119Z,101274.66
2019-05-05T15:48:23.827Z,101266.31
2019-05-05T15:50:52.099Z,101265.91
2019-05-05T15:53:20.377Z,101264.82
2019-05-05T15:55:48.633Z,101280.27
2019-05-05T15:58:20.497Z,101269.95
2019-05-05T16:01:06.244Z,101280.42
2019-05-05T16:03:34.508Z,101280.42
2019-05-05T16:06:03.762Z,101278.19
2019-05-05T16:08:33.948Z,101281.39
2019-05-05T16:11:03.772Z,101283.11
2019-05-05T16:13:35.109Z,101295.98
2019-05-05T16:16:23.599Z,101287.67
2019-05-05T16:19:11.035Z,101293.49
2019-05-05T16:21:58.436Z,101293.48
2019-05-05T16:24:45.831Z,101297.58
2019-05-05T16:27:21.800Z,101300.14
2019-05-05T16:29:44.286Z,101300.09
2019-05-05T16:32:21.694Z,101296.56
2019-05-05T16:34:42.535Z,101296.53
2019-05-05T16:37:10.806Z,101298.93
2019-05-05T16:39:39.067Z,101301.59
2019-05-05T16:42:07.343Z,101293.10
2019-05-05T16:44:35.638Z,101301.72
2019-05-05T16:47:04.674Z,101294.34
2019-05-05T16:49:35.485Z,101286.74
2019-05-05T16:55:13.457Z,101286.47
2019-05-05T16:57:43.703Z,101290.58
2019-05-05T17:00:12.041Z,101284.59
2019-05-05T17:02:40.321Z,101288.95
2019-05-05T17:05:44.081Z,101283.15
2019-05-05T17:08:13.973Z,101288.09
2019-05-05T17:10:43.564Z,101296.53
2019-05-05T17:21:28.430Z,101301.78
2019-05-05T17:23:56.708Z,101305.39
2019-05-05T17:26:24.983Z,101303.94
2019-05-05T17:28:54.131Z,101297.87
2019-05-05T17:31:35.366Z,101299.62
2019-05-05T17:34:04.179Z,101301.37
2019-05-05T17:36:33.630Z,101299.95
2019-05-05T17:39:01.891Z,101300.24
2019-05-05T17:47:07.191Z,101298.92
2019-05-05T17:52:37.099Z,101302.97
2019-05-05T17:55:38.574Z,101297.67
2019-05-05T17:58:06.845Z,101296.34
2019-05-05T18:03:34.083Z,101305.38
2019-05-05T18:06:23.644Z,101303.00
2019-05-05T18:09:11.608Z,101298.50
2019-05-05T18:11:58.973Z,101295.55
2019-05-05T18:17:06.196Z,101312.67
2019-05-05T18:19:34.510Z,101310.58
2019-05-05T18:22:02.768Z,101305.41
2019-05-05T18:24:31.039Z,101314.81
2019-05-05T18:26:59.338Z,101317.56
2019-05-05T18:29:27.607Z,101316.02
2019-05-05T18:31:55.902Z,101317.81
2019-05-05T18:34:24.231Z,101321.27
2019-05-05T18:36:54.392Z,101320.56
2019-05-05T18:39:24.513Z,101323.32
2019-05-05T18:42:13.830Z,101325.00
2019-05-05T18:49:59.506Z,101332.77
2019-05-05T18:52:27.773Z,101337.27
2019-05-05T18:54:56.962Z,101327.00
2019-05-05T18:57:25.269Z,101327.00
2019-05-05T18:59:54.231Z,101340.12
2019-05-05T19:05:23.565Z,101340.01
2019-05-05T19:08:10.825Z,101344.36
2019-05-05T19:10:39.140Z,101342.66
2019-05-05T19:13:07.415Z,101354.27
2019-05-05T19:15:35.722Z,101351.27
2019-05-05T19:18:06.361Z,101353.73
2019-05-05T19:20:54.151Z,101353.14
2019-05-05T19:23:22.540Z,101347.01
2019-05-05T19:25:50.838Z,101344.41
2019-05-05T19:28:19.107Z,101348.97
2019-05-05T19:30:47.447Z,101349.79
2019-05-05T19:33:15.735Z,101348.70
2019-05-05T19:35:46.898Z,101344.48
2019-05-05T19:38:15.755Z,101343.55
2019-05-05T19:40:44.063Z,101345.38
2019-05-05T19:43:13.953Z,101344.30
2019-05-05T19:45:44.642Z,101346.77
2019-05-05T19:48:14.792Z,101360.88
2019-05-05T19:53:35.236Z,101348.09
2019-05-05T19:56:01.322Z,101344.37
2019-05-05T19:58:29.580Z,101347.92
2019-05-05T20:03:37.015Z,101347.65
2019-05-05T20:06:05.529Z,101350.11
2019-05-05T20:09:14.284Z,101345.77
2019-05-05T20:12:03.879Z,101351.63
2019-05-05T20:14:34.064Z,101350.61
2019-05-05T20:17:20.899Z,101348.56
2019-05-05T20:19:49.154Z,101343.08
2019-05-05T20:22:17.427Z,101356.70
2019-05-05T20:24:45.706Z,101354.45
2019-05-05T20:27:14.156Z,101354.36
2019-05-05T20:29:42.413Z,101346.97
2019-05-05T20:32:10.699Z,101357.37
2019-05-05T20:34:58.090Z,101358.55
2019-05-05T20:37:45.485Z,101349.77
2019-05-05T20:42:54.320Z,101353.23
2019-05-05T20:48:11.725Z,101344.78
2019-05-05T20:50:39.992Z,101353.10
2019-05-05T20:53:08.277Z,101348.98
2019-05-05T20:55:36.545Z,101349.58
2019-05-05T20:58:24.168Z,101340.12
2019-05-05T21:00:52.438Z,101340.12
2019-05-05T21:03:20.710Z,101343.64
2019-05-05T21:05:48.967Z,101344.53
2019-05-05T21:08:17.243Z,101339.11
2019-05-05T21:10:45.497Z,101336.97
2019-05-05T21:13:14.331Z,101336.11
2019-05-05T21:15:45.005Z,101340.89
2019-05-05T21:18:14.408Z,101335.63
2019-05-05T21:20:43.702Z,101336.77
2019-05-05T21:23:31.096Z,101331.77
2019-05-05T21:28:38.306Z,101331.03
2019-05-05T21:31:06.573Z,101336.20
2019-05-05T21:33:34.954Z,101340.68
2019-05-05T21:36:04.220Z,101329.14
2019-05-05T21:38:35.423Z,101330.23
2019-05-05T21:41:04.220Z,101323.34
2019-05-05T21:43:33.172Z,101325.25
2019-05-05T21:46:01.440Z,101325.97
2019-05-05T21:48:29.707Z,101326.31
2019-05-05T21:51:17.083Z,101324.74
2019-05-05T21:54:04.486Z,101324.06
2019-05-05T21:56:51.861Z,101316.79
2019-05-05T21:59:20.158Z,101322.45
2019-05-05T22:01:49.765Z,101309.05
2019-05-05T22:04:18.422Z,101311.23
2019-05-05T22:06:46.684Z,101307.41
2019-05-05T22:09:14.975Z,101307.61
2019-05-05T22:11:43.642Z,101311.03
2019-05-05T22:14:13.899Z,101304.78
2019-05-05T22:16:41.879Z,101307.71
2019-05-05T22:19:10.150Z,101302.50
2019-05-05T22:21:57.534Z,101304.71
2019-05-05T22:24:25.794Z,101300.45
2019-05-05T22:26:54.380Z,101296.87
2019-05-05T22:29:24.901Z,101301.64
2019-05-05T22:31:54.035Z,101299.56
2019-05-05T22:34:24.122Z,101305.13
2019-05-05T22:36:52.285Z,101292.47
2019-05-05T22:39:20.552Z,101302.19
2019-05-05T22:41:48.821Z,101299.62
2019-05-05T22:44:17.077Z,101291.84
2019-05-05T22:46:45.513Z,101289.09
2019-05-05T22:49:14.748Z,101290.86
2019-05-05T22:51:44.776Z,101291.27
2019-05-05T22:54:14.913Z,101284.52
2019-05-05T22:56:44.853Z,101287.11
2019-05-05T22:59:14.624Z,101284.11
2019-05-05T23:01:42.894Z,101283.66
2019-05-05T23:09:39.075Z,101278.88
2019-05-05T23:12:07.334Z,101271.55
2019-05-05T23:14:35.615Z,101272.43
2019-05-05T23:17:26.199Z,101268.36
2019-05-05T23:20:13.862Z,101269.81
2019-05-05T23:23:01.249Z,101266.56
2019-05-05T23:25:48.618Z,101265.42
2019-05-05T23:28:16.891Z,101262.42
2019-05-05T23:30:45.167Z,101262.30
2019-05-05T23:33:14.324Z,101259.27
2019-05-05T23:35:43.744Z,101263.22
2019-05-05T23:38:14.340Z,101264.00
2019-05-05T23:40:42.687Z,101264.95
2019-05-05T23:43:10.958Z,101270.48
2019-05-05T23:45:39.227Z,101271.15
2019-05-05T23:51:08.461Z,101268.65
2019-05-05T23:53:36.721Z,101261.73
2019-05-05T23:56:04.982Z,101259.36
2019-05-05T23:58:34.759Z,101254.90
